createdAt,value
2022-10-10T00:02:05.287Z,99.90
2022-10-10T00:04:32.297Z,99.90
2022-10-10T00:06:58.914Z,99.90
2022-10-10T00:09:25.541Z,99.90
2022-10-10T00:11:52.151Z,99.90
2022-10-10T00:14:18.791Z,99.90
2022-10-10T00:16:45.391Z,99.90
2022-10-10T00:19:12.324Z,99.90
2022-10-10T00:21:39.059Z,99.90
2022-10-10T00:24:05.796Z,99.90
2022-10-10T00:26:32.367Z,99.90
2022-10-10T00:28:58.951Z,99.90
2022-10-10T00:31:25.598Z,99.90
2022-10-10T00:33:52.178Z,99.90
2022-10-10T00:36:20.591Z,99.90
2022-10-10T00:38:47.540Z,99.90
2022-10-10T00:41:14.184Z,99.90
2022-10-10T00:43:40.768Z,99.90
2022-10-10T00:46:07.456Z,99.90
2022-10-10T00:48:36.252Z,99.90
2022-10-10T00:51:07.960Z,99.90
2022-10-10T00:53:36.483Z,99.90
2022-10-10T00:56:03.956Z,99.90
2022-10-10T00:58:30.822Z,99.90
2022-10-10T01:00:57.546Z,99.90
2022-10-10T01:03:24.210Z,99.90
2022-10-10T01:05:51.049Z,99.90
2022-10-10T01:08:18.523Z,99.90
2022-10-10T01:11:05.362Z,99.90
2022-10-10T01:13:39.824Z,99.90
2022-10-10T01:16:06.371Z,99.90
2022-10-10T01:18:35.958Z,99.90
2022-10-10T01:21:10.286Z,99.90
2022-10-10T01:23:36.886Z,99.90
2022-10-10T01:26:12.579Z,99.90
2022-10-10T01:28:42.280Z,99.90
2022-10-10T01:31:09.815Z,99.90
2022-10-10T01:33:48.536Z,99.90
2022-10-10T01:36:21.210Z,99.90
2022-10-10T01:38:54.073Z,99.90
2022-10-10T01:41:40.903Z,99.90
2022-10-10T01:44:07.531Z,99.90
2022-10-10T01:46:34.137Z,99.90
2022-10-10T01:49:01.266Z,99.90
2022-10-10T01:51:27.842Z,99.90
2022-10-10T01:54:06.463Z,99.90
2022-10-10T01:56:48.225Z,99.90
2022-10-10T01:59:27.191Z,99.90
2022-10-10T02:01:56.636Z,99.90
2022-10-10T02:04:30.115Z,99.90
2022-10-10T02:07:05.207Z,99.90
2022-10-10T02:09:35.738Z,99.90
2022-10-10T02:12:02.703Z,99.90
2022-10-10T02:14:31.996Z,99.90
2022-10-10T02:17:00.082Z,99.90
2022-10-10T02:19:27.388Z,99.90
2022-10-10T02:21:54.467Z,99.90
2022-10-10T02:24:22.680Z,99.90
2022-10-10T02:26:54.204Z,99.90
2022-10-10T02:29:24.816Z,99.90
2022-10-10T02:31:51.473Z,99.90
2022-10-10T02:34:19.751Z,99.90
2022-10-10T02:36:49.532Z,99.90
2022-10-10T02:39:16.628Z,99.90
2022-10-10T02:41:44.453Z,99.90
2022-10-10T02:44:12.249Z,99.90
2022-10-10T02:46:39.048Z,99.90
2022-10-10T02:49:07.790Z,99.90
2022-10-10T02:51:34.546Z,99.90
2022-10-10T02:54:01.163Z,99.90
2022-10-10T02:56:27.749Z,99.90
2022-10-10T02:58:54.339Z,99.90
2022-10-10T03:01:20.951Z,99.90
2022-10-10T03:03:47.622Z,99.90
2022-10-10T03:06:14.207Z,99.90
2022-10-10T03:08:40.839Z,99.90
2022-10-10T03:11:07.432Z,99.90
2022-10-10T03:13:34.038Z,99.90
2022-10-10T03:16:00.694Z,99.90
2022-10-10T03:18:27.299Z,99.90
2022-10-10T03:20:55.895Z,99.90
2022-10-10T03:23:23.615Z,99.90
2022-10-10T03:25:50.267Z,99.90
2022-10-10T03:28:16.965Z,99.90
2022-10-10T03:30:43.695Z,99.90
2022-10-10T03:33:10.286Z,99.90
2022-10-10T03:35:37.282Z,99.90
2022-10-10T03:38:04.336Z,99.90
2022-10-10T03:40:31.319Z,99.90
2022-10-10T03:42:57.900Z,99.90
2022-10-10T03:45:24.577Z,99.90
2022-10-10T03:47:51.434Z,99.90
2022-10-10T03:50:18.282Z,99.90
2022-10-10T03:52:44.849Z,99.90
2022-10-10T03:55:11.446Z,99.90
2022-10-10T03:57:38.096Z,99.90
2022-10-10T04:00:05.170Z,99.90
2022-10-10T04:02:31.783Z,99.90
2022-10-10T04:04:58.353Z,99.90
2022-10-10T04:07:24.963Z,99.90
2022-10-10T04:09:51.556Z,99.90
2022-10-10T04:12:18.142Z,99.90
2022-10-10T04:14:44.737Z,99.90
2022-10-10T04:17:11.388Z,99.90
2022-10-10T04:19:37.978Z,99.90
2022-10-10T04:22:08.950Z,99.90
2022-10-10T04:24:37.913Z,99.90
2022-10-10T04:27:04.623Z,99.90
2022-10-10T04:29:31.292Z,99.90
2022-10-10T04:31:57.896Z,99.90
2022-10-10T04:34:24.547Z,99.90
2022-10-10T04:36:51.116Z,99.90
2022-10-10T04:39:17.748Z,99.90
2022-10-10T04:41:44.407Z,99.90
2022-10-10T04:44:10.986Z,99.90
2022-10-10T04:46:37.572Z,99.90
2022-10-10T04:49:04.228Z,99.90
2022-10-10T04:51:30.875Z,99.90
2022-10-10T04:53:57.487Z,99.90
2022-10-10T04:56:24.761Z,99.90
2022-10-10T04:58:51.415Z,99.90
2022-10-10T05:01:18.080Z,99.90
2022-10-10T05:03:44.720Z,99.90
2022-10-10T05:06:11.472Z,99.90
2022-10-10T05:08:38.266Z,99.90
2022-10-10T05:11:04.988Z,99.90
2022-10-10T05:13:31.559Z,99.90
2022-10-10T05:15:58.928Z,99.90
2022-10-10T05:18:25.541Z,99.90
2022-10-10T05:20:52.143Z,99.90
2022-10-10T05:23:18.715Z,99.90
2022-10-10T05:25:47.615Z,99.90
2022-10-10T05:28:14.269Z,99.90
2022-10-10T05:30:40.946Z,99.90
2022-10-10T05:33:07.744Z,99.90
2022-10-10T05:35:34.379Z,99.90
2022-10-10T05:38:00.979Z,99.90
2022-10-10T05:40:27.648Z,99.90
2022-10-10T05:42:54.476Z,99.90
2022-10-10T05:45:21.076Z,99.90
2022-10-10T05:47:47.757Z,99.90
2022-10-10T05:50:25.195Z,99.90
2022-10-10T05:52:52.063Z,99.90
2022-10-10T05:55:21.932Z,99.90
2022-10-10T05:57:48.878Z,99.90
2022-10-10T06:00:15.551Z,99.90
2022-10-10T06:02:42.194Z,99.90
2022-10-10T06:05:09.057Z,99.90
2022-10-10T06:07:59.091Z,99.90
2022-10-10T06:10:22.419Z,99.90
2022-10-10T06:12:49.377Z,99.90
2022-10-10T06:15:16.228Z,99.90
2022-10-10T06:17:42.800Z,99.90
2022-10-10T06:20:09.846Z,99.90
2022-10-10T06:22:36.727Z,99.90
2022-10-10T06:25:03.416Z,99.90
2022-10-10T06:27:29.991Z,99.90
2022-10-10T06:29:56.576Z,99.90
2022-10-10T06:32:23.142Z,99.90
2022-10-10T06:34:49.736Z,99.90
2022-10-10T06:37:16.336Z,99.90
2022-10-10T06:39:42.980Z,99.90
2022-10-10T06:42:09.605Z,99.90
2022-10-10T06:44:36.233Z,99.90
2022-10-10T06:47:02.844Z,99.90
2022-10-10T06:49:29.664Z,99.90
2022-10-10T06:51:56.295Z,99.90
2022-10-10T06:54:23.000Z,99.90
2022-10-10T06:56:49.618Z,99.90
2022-10-10T06:59:16.216Z,99.90
2022-10-10T07:01:42.940Z,99.90
2022-10-10T07:04:10.074Z,99.90
2022-10-10T07:06:37.100Z,99.90
2022-10-10T07:09:03.776Z,99.90
2022-10-10T07:11:30.369Z,99.90
2022-10-10T07:13:56.987Z,99.90
2022-10-10T07:16:23.639Z,99.90
2022-10-10T07:18:50.244Z,99.90
2022-10-10T07:21:16.865Z,99.90
2022-10-10T07:23:43.692Z,99.90
2022-10-10T07:26:11.713Z,99.90
2022-10-10T07:28:38.861Z,99.90
2022-10-10T07:31:07.037Z,99.90
2022-10-10T07:33:38.770Z,99.90
2022-10-10T07:36:05.832Z,99.90
2022-10-10T07:38:32.669Z,99.90
2022-10-10T07:40:59.255Z,99.90
2022-10-10T07:43:25.856Z,99.90
2022-10-10T07:45:52.473Z,99.90
2022-10-10T07:48:19.073Z,99.90
2022-10-10T07:50:45.756Z,99.90
2022-10-10T07:53:12.471Z,99.90
2022-10-10T07:55:40.118Z,99.90
2022-10-10T07:58:07.031Z,99.90
2022-10-10T08:00:35.503Z,99.90
2022-10-10T08:03:02.122Z,99.90
2022-10-10T08:05:28.951Z,99.90
2022-10-10T08:07:55.588Z,99.90
2022-10-10T08:10:22.257Z,99.90
2022-10-10T08:12:48.911Z,99.90
2022-10-10T08:15:15.585Z,99.90
2022-10-10T08:17:42.224Z,99.90
2022-10-10T08:20:09.121Z,99.90
2022-10-10T08:22:35.728Z,99.90
2022-10-10T08:25:02.579Z,99.90
2022-10-10T08:27:29.156Z,99.90
2022-10-10T08:29:55.758Z,99.90
2022-10-10T08:32:22.415Z,99.90
2022-10-10T08:34:49.066Z,99.90
2022-10-10T08:37:15.676Z,99.90
2022-10-10T08:39:42.339Z,99.90
2022-10-10T08:42:17.624Z,99.90
2022-10-10T08:44:46.266Z,99.90
2022-10-10T08:47:15.439Z,99.90
2022-10-10T08:49:45.597Z,99.90
2022-10-10T08:52:12.175Z,99.90
2022-10-10T08:54:39.676Z,99.90
2022-10-10T08:57:09.643Z,99.90
2022-10-10T08:59:39.521Z,99.90
2022-10-10T09:02:26.375Z,99.90
2022-10-10T09:05:05.451Z,99.90
2022-10-10T09:07:37.827Z,99.90
2022-10-10T09:10:23.259Z,99.90
2022-10-10T09:13:02.093Z,99.90
2022-10-10T09:15:31.204Z,98.30
2022-10-10T09:18:20.797Z,97.40
2022-10-10T09:21:08.107Z,99.30
2022-10-10T09:23:46.843Z,98.70
2022-10-10T09:26:14.551Z,96.30
2022-10-10T09:28:47.690Z,94.90
2022-10-10T09:31:17.640Z,94.70
2022-10-10T09:33:48.371Z,93.50
2022-10-10T09:36:17.856Z,93.70
2022-10-10T09:38:48.035Z,94.30
2022-10-10T09:41:23.206Z,94.40
2022-10-10T09:43:54.809Z,93.00
2022-10-10T09:46:21.435Z,93.30
2022-10-10T09:48:48.088Z,91.50
2022-10-10T09:51:17.203Z,92.30
2022-10-10T09:53:44.680Z,90.60
2022-10-10T09:56:16.805Z,90.80
2022-10-10T09:58:45.385Z,93.00
2022-10-10T10:01:22.497Z,92.60
2022-10-10T10:04:23.293Z,91.30
2022-10-10T10:07:03.756Z,91.90
2022-10-10T10:09:30.374Z,90.70
2022-10-10T10:11:57.426Z,91.10
2022-10-10T10:14:26.103Z,91.10
2022-10-10T10:16:53.774Z,91.20
2022-10-10T10:19:40.084Z,91.10
2022-10-10T10:22:26.369Z,91.90
2022-10-10T10:24:53.622Z,93.20
2022-10-10T10:27:21.736Z,92.80
2022-10-10T10:29:50.120Z,91.00
2022-10-10T10:32:35.610Z,91.60
2022-10-10T10:35:05.258Z,91.90
2022-10-10T10:37:54.782Z,92.40
2022-10-10T10:40:27.315Z,90.50
2022-10-10T10:42:56.883Z,91.20
2022-10-10T10:45:55.944Z,91.40
2022-10-10T10:48:32.471Z,93.30
2022-10-10T10:51:19.325Z,91.80
2022-10-10T10:53:55.671Z,91.60
2022-10-10T10:56:39.722Z,92.10
2022-10-10T10:59:37.413Z,91.30
2022-10-10T11:02:09.877Z,92.60
2022-10-10T11:05:24.861Z,93.90
2022-10-10T11:07:52.890Z,92.60
2022-10-10T11:10:28.636Z,92.60
2022-10-10T11:13:13.227Z,93.10
2022-10-10T11:18:31.792Z,90.90
2022-10-10T11:21:01.909Z,90.30
2022-10-10T11:23:32.571Z,90.40
2022-10-10T11:26:08.184Z,91.10
2022-10-10T11:28:37.668Z,92.70
2022-10-10T11:31:11.692Z,91.70
2022-10-10T11:33:46.494Z,93.60
2022-10-10T11:36:16.220Z,93.80
2022-10-10T11:38:45.939Z,93.20
2022-10-10T11:41:15.687Z,93.50
2022-10-10T11:43:50.795Z,92.60
2022-10-10T11:46:20.557Z,92.40
2022-10-10T11:49:06.360Z,93.20
2022-10-10T11:51:45.205Z,91.70
2022-10-10T11:54:41.206Z,93.40
2022-10-10T11:57:17.790Z,92.40
2022-10-10T11:59:55.963Z,92.50
2022-10-10T12:02:27.961Z,91.80
2022-10-10T12:04:54.891Z,91.40
2022-10-10T12:07:24.608Z,92.60
2022-10-10T12:09:54.356Z,92.60
2022-10-10T12:12:23.565Z,92.30
2022-10-10T12:14:54.195Z,91.50
2022-10-10T12:17:22.300Z,92.20
2022-10-10T12:19:50.585Z,93.40
2022-10-10T12:22:31.006Z,93.30
2022-10-10T12:25:06.929Z,92.50
2022-10-10T12:27:56.823Z,94.00
2022-10-10T12:30:25.054Z,92.70
2022-10-10T12:32:54.339Z,92.70
2022-10-10T12:35:41.211Z,92.60
2022-10-10T12:38:10.424Z,94.10
2022-10-10T12:40:57.011Z,94.80
2022-10-10T12:43:25.110Z,94.70
2022-10-10T12:45:55.988Z,95.00
2022-10-10T12:48:23.432Z,95.60
2022-10-10T12:50:55.833Z,94.70
2022-10-10T12:53:23.644Z,95.50
2022-10-10T12:55:52.299Z,95.20
2022-10-10T12:58:33.128Z,95.50
2022-10-10T13:01:01.314Z,94.70
2022-10-10T13:03:32.237Z,94.70
2022-10-10T13:06:02.516Z,95.50
2022-10-10T13:08:29.928Z,97.00
2022-10-10T13:11:06.555Z,96.60
2022-10-10T13:13:33.714Z,95.80
2022-10-10T13:16:05.812Z,97.50
2022-10-10T13:18:39.707Z,97.70
2022-10-10T13:21:11.800Z,97.60
2022-10-10T13:23:43.492Z,97.00
2022-10-10T13:26:23.321Z,97.20
2022-10-10T13:28:53.967Z,98.00
2022-10-10T13:31:20.811Z,97.30
2022-10-10T13:33:47.454Z,97.90
2022-10-10T13:36:21.546Z,98.80
2022-10-10T13:38:49.163Z,99.20
2022-10-10T13:41:19.297Z,98.70
2022-10-10T13:43:45.978Z,99.00
2022-10-10T13:46:19.873Z,98.60
2022-10-10T13:48:46.477Z,98.40
2022-10-10T13:51:14.050Z,98.90
2022-10-10T13:53:45.546Z,99.90
2022-10-10T13:56:31.084Z,99.60
2022-10-10T13:59:00.695Z,99.60
2022-10-10T14:01:27.486Z,99.90
2022-10-10T14:03:56.563Z,99.90
2022-10-10T14:06:25.703Z,99.90
2022-10-10T14:08:53.167Z,99.90
2022-10-10T14:11:21.291Z,99.90
2022-10-10T14:13:50.077Z,99.90
2022-10-10T14:16:16.696Z,99.90
2022-10-10T14:18:43.642Z,99.90
2022-10-10T14:21:10.500Z,99.90
2022-10-10T14:23:37.564Z,99.90
2022-10-10T14:26:05.146Z,99.90
2022-10-10T14:28:33.223Z,99.90
2022-10-10T14:31:00.659Z,99.90
2022-10-10T14:33:27.530Z,99.90
2022-10-10T14:35:56.256Z,99.90
2022-10-10T14:38:23.245Z,99.90
2022-10-10T14:40:50.490Z,99.90
2022-10-10T14:43:17.599Z,99.90
2022-10-10T14:45:44.881Z,99.90
2022-10-10T14:48:11.621Z,99.90
2022-10-10T14:50:41.800Z,99.90
2022-10-10T14:53:08.517Z,99.90
2022-10-10T14:55:35.143Z,99.90
2022-10-10T14:58:01.831Z,99.90
2022-10-10T15:00:28.463Z,99.90
2022-10-10T15:02:55.263Z,99.90
2022-10-10T15:05:22.002Z,99.90
2022-10-10T15:07:53.471Z,99.90
2022-10-10T15:10:33.092Z,99.90
2022-10-10T15:13:00.909Z,99.90
2022-10-10T15:15:27.564Z,99.90
2022-10-10T15:17:54.315Z,99.90
2022-10-10T15:20:24.094Z,99.90
2022-10-10T15:22:50.813Z,99.90
2022-10-10T15:25:17.519Z,99.90
2022-10-10T15:27:44.207Z,99.90
2022-10-10T15:30:10.993Z,99.90
2022-10-10T15:32:39.139Z,99.90
2022-10-10T15:35:06.025Z,99.90
2022-10-10T15:37:32.907Z,99.90
2022-10-10T15:39:59.555Z,99.90
2022-10-10T15:42:26.196Z,99.90
2022-10-10T15:44:52.949Z,99.90
2022-10-10T15:47:20.389Z,99.90
2022-10-10T15:49:47.538Z,99.90
2022-10-10T15:52:14.235Z,99.90
2022-10-10T15:54:40.911Z,99.90
2022-10-10T15:57:07.611Z,99.90
2022-10-10T15:59:35.174Z,99.90
2022-10-10T16:02:04.399Z,99.90
2022-10-10T16:04:31.019Z,99.90
2022-10-10T16:07:26.907Z,99.90
2022-10-10T16:09:44.302Z,99.90
2022-10-10T16:12:10.949Z,99.90
2022-10-10T16:14:37.582Z,99.90
2022-10-10T16:17:04.303Z,99.90
2022-10-10T16:19:30.989Z,99.90
2022-10-10T16:21:57.723Z,99.90
2022-10-10T16:24:24.473Z,99.90
2022-10-10T16:26:51.194Z,99.90
2022-10-10T16:29:18.731Z,99.90
2022-10-10T16:31:45.504Z,99.90
2022-10-10T16:34:15.097Z,99.90
2022-10-10T16:36:42.024Z,99.90
2022-10-10T16:39:08.680Z,99.90
2022-10-10T16:41:47.637Z,99.90
2022-10-10T16:44:15.394Z,99.90
2022-10-10T16:46:42.135Z,99.90
2022-10-10T16:49:09.481Z,99.90
2022-10-10T16:51:36.985Z,99.90
2022-10-10T16:54:05.281Z,99.90
2022-10-10T16:56:31.951Z,99.90
2022-10-10T16:58:59.510Z,99.90
2022-10-10T17:01:26.351Z,99.90
2022-10-10T17:03:53.186Z,99.90
2022-10-10T17:06:21.215Z,99.90
2022-10-10T17:08:48.619Z,99.90
2022-10-10T17:11:17.055Z,99.90
2022-10-10T17:13:43.748Z,99.90
2022-10-10T17:16:53.452Z,99.90
2022-10-10T17:19:00.640Z,99.90
2022-10-10T17:21:27.459Z,99.90
2022-10-10T17:23:54.827Z,99.90
2022-10-10T17:26:22.613Z,99.90
2022-10-10T17:28:49.932Z,99.90
2022-10-10T17:31:17.472Z,99.90
2022-10-10T17:33:49.738Z,99.90
2022-10-10T17:36:21.040Z,99.90
2022-10-10T17:38:48.004Z,99.90
2022-10-10T17:41:16.578Z,99.90
2022-10-10T17:43:43.757Z,99.90
2022-10-10T17:46:33.063Z,99.90
2022-10-10T17:48:58.760Z,99.90
2022-10-10T17:51:25.460Z,99.90
2022-10-10T17:53:52.155Z,99.90
2022-10-10T17:56:20.497Z,99.90
2022-10-10T17:58:47.537Z,99.90
2022-10-10T18:01:15.567Z,99.90
2022-10-10T18:03:42.507Z,99.90
2022-10-10T18:06:13.857Z,99.90
2022-10-10T18:08:40.740Z,99.90
2022-10-10T18:11:18.146Z,99.90
2022-10-10T18:13:44.868Z,99.90
2022-10-10T18:16:13.455Z,99.90
2022-10-10T18:18:41.403Z,99.90
2022-10-10T18:21:08.914Z,99.90
2022-10-10T18:23:35.773Z,99.90
2022-10-10T18:26:03.835Z,99.90
2022-10-10T18:28:31.608Z,99.90
2022-10-10T18:30:58.329Z,99.90
2022-10-10T18:33:25.072Z,99.90
2022-10-10T18:35:51.690Z,99.90
2022-10-10T18:38:18.615Z,99.90
2022-10-10T18:40:45.301Z,99.90
2022-10-10T18:43:12.855Z,99.90
2022-10-10T18:45:39.488Z,99.90
2022-10-10T18:48:06.253Z,99.90
2022-10-10T18:50:32.884Z,99.90
2022-10-10T18:52:59.545Z,99.90
2022-10-10T18:55:30.311Z,99.90
2022-10-10T18:57:57.826Z,99.90
2022-10-10T19:00:27.539Z,99.90
2022-10-10T19:02:54.198Z,99.90
2022-10-10T19:05:20.929Z,99.90
2022-10-10T19:07:47.554Z,99.90
2022-10-10T19:10:14.214Z,99.90
2022-10-10T19:12:45.142Z,99.90
2022-10-10T19:15:14.859Z,99.90
2022-10-10T19:17:41.536Z,99.90
2022-10-10T19:20:08.373Z,99.90
2022-10-10T19:22:35.009Z,99.90
2022-10-10T19:25:02.976Z,99.90
2022-10-10T19:27:29.698Z,99.90
2022-10-10T19:29:56.364Z,99.90
2022-10-10T19:32:23.028Z,99.90
2022-10-10T19:34:49.692Z,99.90
2022-10-10T19:37:16.496Z,99.90
2022-10-10T19:39:43.193Z,99.90
2022-10-10T19:42:09.812Z,99.90
2022-10-10T19:44:36.467Z,99.90
2022-10-10T19:47:03.177Z,99.90
2022-10-10T19:49:30.313Z,99.90
2022-10-10T19:51:56.964Z,99.90
2022-10-10T19:54:23.619Z,99.90
2022-10-10T19:56:50.942Z,99.90
2022-10-10T19:59:17.767Z,99.90
2022-10-10T20:01:44.778Z,99.90
2022-10-10T20:04:11.981Z,99.90
2022-10-10T20:06:41.120Z,99.90
2022-10-10T20:09:10.758Z,99.90
2022-10-10T20:11:38.174Z,99.90
2022-10-10T20:14:04.946Z,99.90
2022-10-10T20:16:31.630Z,99.90
2022-10-10T20:18:58.925Z,99.90
2022-10-10T20:21:29.564Z,99.90
2022-10-10T20:23:56.661Z,99.90
2022-10-10T20:26:23.806Z,99.90
2022-10-10T20:28:51.305Z,99.90
2022-10-10T20:31:20.104Z,99.90
2022-10-10T20:33:47.836Z,99.90
2022-10-10T20:36:14.659Z,99.90
2022-10-10T20:38:41.346Z,99.90
2022-10-10T20:41:09.004Z,99.90
2022-10-10T20:43:36.493Z,99.90
2022-10-10T20:46:07.517Z,99.90
2022-10-10T20:48:34.449Z,99.90
2022-10-10T20:51:01.911Z,99.90
2022-10-10T20:53:28.522Z,99.90
2022-10-10T20:55:55.213Z,99.90
2022-10-10T20:58:21.920Z,99.90
2022-10-10T21:00:48.681Z,99.90
2022-10-10T21:03:15.399Z,99.90
2022-10-10T21:05:42.035Z,99.90
2022-10-10T21:08:09.468Z,99.90
2022-10-10T21:10:36.674Z,99.90
2022-10-10T21:13:03.301Z,99.90
2022-10-10T21:15:29.988Z,99.90
2022-10-10T21:17:57.054Z,99.90
2022-10-10T21:20:23.873Z,99.90
2022-10-10T21:22:50.512Z,99.90
2022-10-10T21:25:17.144Z,99.90
2022-10-10T21:27:43.836Z,99.90
2022-10-10T21:30:10.666Z,99.90
2022-10-10T21:32:37.297Z,99.90
2022-10-10T21:35:04.123Z,99.90
2022-10-10T21:37:32.301Z,99.90
2022-10-10T21:39:59.211Z,99.90
2022-10-10T21:42:25.827Z,99.90
2022-10-10T21:44:52.473Z,99.90
2022-10-10T21:47:19.095Z,99.90
2022-10-10T21:49:45.746Z,99.90
2022-10-10T21:52:12.388Z,99.90
2022-10-10T21:54:39.142Z,99.90
2022-10-10T21:57:05.783Z,99.90
2022-10-10T21:59:32.681Z,99.90
2022-10-10T22:01:59.367Z,99.90
2022-10-10T22:04:29.029Z,99.90
2022-10-10T22:06:55.968Z,99.90
2022-10-10T22:09:22.638Z,99.90
2022-10-10T22:11:49.894Z,99.90
2022-10-10T22:14:16.556Z,99.90
2022-10-10T22:16:43.186Z,99.90
2022-10-10T22:19:09.823Z,99.90
2022-10-10T22:21:36.653Z,99.90
2022-10-10T22:24:05.100Z,99.90
2022-10-10T22:26:31.862Z,99.90
2022-10-10T22:28:58.581Z,99.90
2022-10-10T22:31:25.448Z,99.90
2022-10-10T22:33:52.101Z,99.90
2022-10-10T22:36:18.770Z,99.90
2022-10-10T22:38:45.564Z,99.90
2022-10-10T22:41:12.603Z,99.90
2022-10-10T22:43:39.248Z,99.90
2022-10-10T22:46:06.476Z,99.90
2022-10-10T22:48:33.503Z,99.90
2022-10-10T22:51:01.059Z,99.90
2022-10-10T22:53:28.193Z,99.90
2022-10-10T22:55:54.811Z,99.90
2022-10-10T22:58:21.531Z,99.90
2022-10-10T23:00:48.331Z,99.90
2022-10-10T23:03:15.059Z,99.90
2022-10-10T23:05:42.596Z,99.90
2022-10-10T23:08:09.434Z,99.90
2022-10-10T23:10:36.096Z,99.90
2022-10-10T23:13:02.765Z,99.90
2022-10-10T23:15:29.450Z,99.90
2022-10-10T23:17:56.126Z,99.90
2022-10-10T23:20:22.777Z,99.90
2022-10-10T23:22:49.468Z,99.90
2022-10-10T23:25:16.124Z,99.90
2022-10-10T23:27:42.892Z,99.90
2022-10-10T23:30:09.828Z,99.90
2022-10-10T23:32:36.501Z,99.90
2022-10-10T23:35:03.193Z,99.90
2022-10-10T23:37:29.850Z,99.90
2022-10-10T23:39:56.505Z,99.90
2022-10-10T23:42:23.133Z,99.90
2022-10-10T23:44:49.735Z,99.90
2022-10-10T23:47:16.475Z,99.90
2022-10-10T23:49:43.098Z,99.90
2022-10-10T23:52:09.772Z,99.90
2022-10-10T23:54:36.433Z,99.90
2022-10-10T23:57:03.444Z,99.90
2022-10-10T23:59:30.227Z,99.90
